This is the latest recevied weather packets stored in our database for station/object LRTZ. If no packets are shown the sender has not sent any weather packets the latest 10 day(s).
| Time | Temp. | Humidity | Pressure | Rain* | Wind** | Luminosity | Snow |
|---|---|---|---|---|---|---|---|
| 1777619943 | 10° C | 67% | 1023 hPa | - | - | - | - |
| 1777619043 | 10° C | 67% | 1023 hPa | - | - | - | - |
| 1777618147 | 7.78° C | 71% | 1023 hPa | - | - | - | - |
| 1777617243 | 7.78° C | 71% | 1023 hPa | - | - | - | - |
| 1777616344 | 7.78° C | 71% | 1023 hPa | - | - | - | - |
| 1777615442 | 7.78° C | 71% | 1023 hPa | - | - | - | - |
| 1777614543 | 7.78° C | 71% | 1023 hPa | - | - | - | - |
| 1777613643 | 6.11° C | 87% | 1023 hPa | - | - | - | - |
| 1777612743 | 6.11° C | 87% | 1023 hPa | - | - | - | - |
| 1777611843 | 6.11° C | 87% | 1023 hPa | - | - | - | - |
| 1777610942 | 5° C | 93% | 1022 hPa | - | - | - | - |
| 1777610042 | 5° C | 93% | 1022 hPa | - | - | - | - |
| 1777609142 | 5° C | 93% | 1022 hPa | - | - | - | - |
| 1777608243 | 5° C | 93% | 1022 hPa | - | - | - | - |
| 1777607342 | 5° C | 93% | 1022 hPa | - | - | - | - |
| 1777606443 | 5° C | 93% | 1022 hPa | - | - | - | - |
| 1777605542 | 5° C | 93% | 1022 hPa | - | - | - | - |
| 1777604643 | 5° C | 93% | 1022 hPa | - | - | - | - |
| 1777603740 | 5° C | 93% | 1022 hPa | - | - | - | - |
| 1777596543 | 6.11° C | 76% | 1023 hPa | - | - | - | - |
| 1777585743 | 7.22° C | 66% | 1021 hPa | - | - | - | - |
| 1777584843 | 7.22° C | 66% | 1021 hPa | - | - | - | - |
| 1777583943 | 7.22° C | 66% | 1021 hPa | - | - | - | - |
| 1777583045 | 7.22° C | 66% | 1021 hPa | - | - | - | - |
| 1777571342 | 7.78° C | 87% | 1021 hPa | - | - | - | - |
* Rain since midnight (hover to see other rain measurements)
** Current wind speed in m/s (hover to see current wind gust speed)